sensor_id;sensor_type;location;lat;lon;timestamp;pressure;altitude;pressure_sealevel;temperature;humidity
29379;BME280;16362;47.202;15.258;2023-01-29T00:01:17;96791.13;;;-1.65;100.00
29379;BME280;16362;47.202;15.258;2023-01-29T00:03:44;96791.97;;;-1.65;100.00
29379;BME280;16362;47.202;15.258;2023-01-29T00:06:10;96793.22;;;-1.72;100.00
29379;BME280;16362;47.202;15.258;2023-01-29T00:08:38;96796.72;;;-1.72;100.00
29379;BME280;16362;47.202;15.258;2023-01-29T00:11:05;96795.84;;;-1.72;100.00
29379;BME280;16362;47.202;15.258;2023-01-29T00:13:32;96796.34;;;-1.65;100.00
29379;BME280;16362;47.202;15.258;2023-01-29T00:16:02;96789.25;;;-1.63;100.00
29379;BME280;16362;47.202;15.258;2023-01-29T00:18:29;96801.25;;;-1.59;100.00
29379;BME280;16362;47.202;15.258;2023-01-29T00:20:55;96798.22;;;-1.67;100.00
29379;BME280;16362;47.202;15.258;2023-01-29T00:23:22;96800.16;;;-1.71;100.00
29379;BME280;16362;47.202;15.258;2023-01-29T00:25:49;96798.47;;;-1.72;100.00
29379;BME280;16362;47.202;15.258;2023-01-29T00:28:15;96803.53;;;-1.69;100.00
29379;BME280;16362;47.202;15.258;2023-01-29T00:30:42;96798.38;;;-1.71;100.00
29379;BME280;16362;47.202;15.258;2023-01-29T00:33:08;96794.25;;;-1.75;100.00
29379;BME280;16362;47.202;15.258;2023-01-29T00:35:38;96804.47;;;-1.70;100.00
29379;BME280;16362;47.202;15.258;2023-01-29T00:38:04;96800.44;;;-1.76;100.00
29379;BME280;16362;47.202;15.258;2023-01-29T00:40:31;96802.28;;;-1.78;100.00
29379;BME280;16362;47.202;15.258;2023-01-29T00:43:17;96803.09;;;-1.77;100.00
29379;BME280;16362;47.202;15.258;2023-01-29T00:46:02;96809.38;;;-1.80;100.00
29379;BME280;16362;47.202;15.258;2023-01-29T00:48:29;96809.94;;;-1.75;100.00
29379;BME280;16362;47.202;15.258;2023-01-29T00:50:55;96802.94;;;-1.74;100.00
29379;BME280;16362;47.202;15.258;2023-01-29T00:53:22;96797.53;;;-1.71;100.00
29379;BME280;16362;47.202;15.258;2023-01-29T00:55:48;96796.84;;;-1.75;100.00
29379;BME280;16362;47.202;15.258;2023-01-29T00:58:15;96796.94;;;-1.76;100.00
29379;BME280;16362;47.202;15.258;2023-01-29T01:00:47;96806.81;;;-1.81;100.00
29379;BME280;16362;47.202;15.258;2023-01-29T01:03:14;96807.59;;;-1.79;100.00
29379;BME280;16362;47.202;15.258;2023-01-29T01:05:41;96804.72;;;-1.75;100.00
29379;BME280;16362;47.202;15.258;2023-01-29T01:08:08;96794.31;;;-1.76;100.00
29379;BME280;16362;47.202;15.258;2023-01-29T01:10:58;96802.44;;;-1.81;100.00
29379;BME280;16362;47.202;15.258;2023-01-29T01:13:24;96803.28;;;-1.80;100.00
29379;BME280;16362;47.202;15.258;2023-01-29T01:15:51;96809.53;;;-1.83;100.00
29379;BME280;16362;47.202;15.258;2023-01-29T01:18:17;96802.53;;;-1.82;100.00
29379;BME280;16362;47.202;15.258;2023-01-29T01:24:34;96817.28;;;-1.81;100.00
29379;BME280;16362;47.202;15.258;2023-01-29T01:27:00;96815.25;;;-1.76;100.00
29379;BME280;16362;47.202;15.258;2023-01-29T01:29:27;96812.56;;;-1.75;100.00
29379;BME280;16362;47.202;15.258;2023-01-29T01:31:53;96814.75;;;-1.83;100.00
29379;BME280;16362;47.202;15.258;2023-01-29T01:34:20;96825.41;;;-1.86;100.00
29379;BME280;16362;47.202;15.258;2023-01-29T01:36:47;96828.69;;;-1.82;100.00
29379;BME280;16362;47.202;15.258;2023-01-29T01:39:14;96831.22;;;-1.81;100.00
29379;BME280;16362;47.202;15.258;2023-01-29T01:41:40;96828.53;;;-1.79;100.00
29379;BME280;16362;47.202;15.258;2023-01-29T01:44:48;96821.88;;;-1.85;100.00
29379;BME280;16362;47.202;15.258;2023-01-29T01:46:53;96831.47;;;-1.86;100.00
29379;BME280;16362;47.202;15.258;2023-01-29T01:49:20;96826.50;;;-1.90;100.00
29379;BME280;16362;47.202;15.258;2023-01-29T01:51:47;96825.66;;;-1.91;100.00
29379;BME280;16362;47.202;15.258;2023-01-29T01:54:20;96830.13;;;-1.93;100.00
29379;BME280;16362;47.202;15.258;2023-01-29T01:56:50;96824.16;;;-1.95;100.00
29379;BME280;16362;47.202;15.258;2023-01-29T01:59:20;96833.50;;;-1.91;100.00
29379;BME280;16362;47.202;15.258;2023-01-29T02:01:49;96829.94;;;-1.90;100.00
29379;BME280;16362;47.202;15.258;2023-01-29T02:04:17;96822.78;;;-1.86;100.00
29379;BME280;16362;47.202;15.258;2023-01-29T02:07:05;96829.81;;;-1.87;100.00
29379;BME280;16362;47.202;15.258;2023-01-29T02:09:57;96828.09;;;-1.88;100.00
29379;BME280;16362;47.202;15.258;2023-01-29T02:12:25;96831.97;;;-1.79;100.00
29379;BME280;16362;47.202;15.258;2023-01-29T02:14:56;96849.69;;;-1.68;100.00
29379;BME280;16362;47.202;15.258;2023-01-29T02:17:22;96839.91;;;-1.80;100.00
29379;BME280;16362;47.202;15.258;2023-01-29T02:30:39;96858.28;;;-1.98;100.00
29379;BME280;16362;47.202;15.258;2023-01-29T02:33:20;96846.66;;;-1.92;100.00
29379;BME280;16362;47.202;15.258;2023-01-29T02:35:55;96858.81;;;-1.91;100.00
29379;BME280;16362;47.202;15.258;2023-01-29T02:38:27;96860.41;;;-1.89;100.00
29379;BME280;16362;47.202;15.258;2023-01-29T02:41:08;96867.66;;;-1.94;100.00
29379;BME280;16362;47.202;15.258;2023-01-29T02:46:42;96873.84;;;-1.95;100.00
29379;BME280;16362;47.202;15.258;2023-01-29T02:49:17;96874.69;;;-1.94;100.00
29379;BME280;16362;47.202;15.258;2023-01-29T02:51:53;96871.06;;;-1.92;100.00
29379;BME280;16362;47.202;15.258;2023-01-29T02:54:27;96869.03;;;-1.87;100.00
29379;BME280;16362;47.202;15.258;2023-01-29T02:57:02;96874.19;;;-1.85;100.00
29379;BME280;16362;47.202;15.258;2023-01-29T03:00:12;96868.34;;;-1.90;100.00
29379;BME280;16362;47.202;15.258;2023-01-29T03:02:20;96864.38;;;-1.97;100.00
29379;BME280;16362;47.202;15.258;2023-01-29T03:04:50;96863.69;;;-2.01;100.00
29379;BME280;16362;47.202;15.258;2023-01-29T03:07:20;96866.41;;;-2.03;100.00
29379;BME280;16362;47.202;15.258;2023-01-29T03:10:08;96870.72;;;-2.01;100.00
29379;BME280;16362;47.202;15.258;2023-01-29T03:12:37;96877.09;;;-2.07;100.00
29379;BME280;16362;47.202;15.258;2023-01-29T03:15:14;96876.75;;;-2.17;100.00
29379;BME280;16362;47.202;15.258;2023-01-29T03:17:50;96884.06;;;-2.24;100.00
29379;BME280;16362;47.202;15.258;2023-01-29T03:20:19;96886.59;;;-2.22;100.00
29379;BME280;16362;47.202;15.258;2023-01-29T03:26:09;96882.16;;;-2.20;100.00
29379;BME280;16362;47.202;15.258;2023-01-29T03:28:55;96877.66;;;-2.18;100.00
29379;BME280;16362;47.202;15.258;2023-01-29T03:31:40;96889.47;;;-2.27;100.00
29379;BME280;16362;47.202;15.258;2023-01-29T03:34:26;96887.94;;;-2.31;100.00
29379;BME280;16362;47.202;15.258;2023-01-29T03:37:05;96894.78;;;-2.28;100.00
29379;BME280;16362;47.202;15.258;2023-01-29T03:39:34;96887.94;;;-2.31;100.00
29379;BME280;16362;47.202;15.258;2023-01-29T03:45:01;96890.41;;;-2.45;100.00
29379;BME280;16362;47.202;15.258;2023-01-29T03:53:03;96889.88;;;-2.52;100.00
29379;BME280;16362;47.202;15.258;2023-01-29T03:58:08;96886.81;;;-2.60;100.00
29379;BME280;16362;47.202;15.258;2023-01-29T04:00:44;96890.88;;;-2.55;100.00
29379;BME280;16362;47.202;15.258;2023-01-29T04:03:36;96893.56;;;-2.56;100.00
29379;BME280;16362;47.202;15.258;2023-01-29T04:06:08;96896.72;;;-2.67;100.00
29379;BME280;16362;47.202;15.258;2023-01-29T04:08:47;96901.72;;;-2.62;100.00
29379;BME280;16362;47.202;15.258;2023-01-29T04:11:17;96897.09;;;-2.57;100.00
29379;BME280;16362;47.202;15.258;2023-01-29T04:13:45;96899.78;;;-2.59;100.00
29379;BME280;16362;47.202;15.258;2023-01-29T04:16:22;96906.88;;;-2.61;100.00
29379;BME280;16362;47.202;15.258;2023-01-29T04:18:50;96902.28;;;-2.56;100.00
29379;BME280;16362;47.202;15.258;2023-01-29T04:21:17;96906.00;;;-2.61;100.00
29379;BME280;16362;47.202;15.258;2023-01-29T04:23:44;96904.66;;;-2.68;100.00
29379;BME280;16362;47.202;15.258;2023-01-29T04:28:56;96897.72;;;-2.69;100.00
29379;BME280;16362;47.202;15.258;2023-01-29T04:31:27;96897.41;;;-2.63;100.00
29379;BME280;16362;47.202;15.258;2023-01-29T04:41:36;96903.81;;;-2.51;100.00
29379;BME280;16362;47.202;15.258;2023-01-29T04:49:28;96899.31;;;-2.49;100.00
29379;BME280;16362;47.202;15.258;2023-01-29T04:52:02;96901.19;;;-2.51;100.00
29379;BME280;16362;47.202;15.258;2023-01-29T04:54:33;96897.88;;;-2.55;100.00
29379;BME280;16362;47.202;15.258;2023-01-29T04:57:13;96897.25;;;-2.60;100.00
29379;BME280;16362;47.202;15.258;2023-01-29T04:59:41;96905.03;;;-2.59;100.00
29379;BME280;16362;47.202;15.258;2023-01-29T05:02:11;96899.66;;;-2.56;100.00
29379;BME280;16362;47.202;15.258;2023-01-29T05:04:38;96901.50;;;-2.58;100.00
29379;BME280;16362;47.202;15.258;2023-01-29T05:07:07;96904.25;;;-2.61;100.00
29379;BME280;16362;47.202;15.258;2023-01-29T05:09:35;96902.50;;;-2.60;100.00
29379;BME280;16362;47.202;15.258;2023-01-29T05:12:04;96902.41;;;-2.59;100.00
29379;BME280;16362;47.202;15.258;2023-01-29T05:14:32;96905.19;;;-2.62;100.00
29379;BME280;16362;47.202;15.258;2023-01-29T05:17:01;96902.72;;;-2.65;100.00
29379;BME280;16362;47.202;15.258;2023-01-29T05:19:29;96907.03;;;-2.64;100.00
29379;BME280;16362;47.202;15.258;2023-01-29T05:21:56;96905.19;;;-2.62;100.00
29379;BME280;16362;47.202;15.258;2023-01-29T05:24:24;96910.16;;;-2.57;100.00
29379;BME280;16362;47.202;15.258;2023-01-29T05:26:51;96905.88;;;-2.58;100.00
29379;BME280;16362;47.202;15.258;2023-01-29T05:29:38;96904.81;;;-2.54;100.00
29379;BME280;16362;47.202;15.258;2023-01-29T05:32:06;96895.97;;;-2.51;100.00
29379;BME280;16362;47.202;15.258;2023-01-29T05:34:33;96892.41;;;-2.50;100.00
29379;BME280;16362;47.202;15.258;2023-01-29T05:36:59;96884.50;;;-2.49;100.00
29379;BME280;16362;47.202;15.258;2023-01-29T05:39:26;96888.72;;;-2.46;100.00
29379;BME280;16362;47.202;15.258;2023-01-29T05:41:52;96893.72;;;-2.42;100.00
29379;BME280;16362;47.202;15.258;2023-01-29T05:44:19;96893.94;;;-2.46;100.00
29379;BME280;16362;47.202;15.258;2023-01-29T05:46:46;96898.41;;;-2.48;100.00
29379;BME280;16362;47.202;15.258;2023-01-29T05:49:12;96901.19;;;-2.51;100.00
29379;BME280;16362;47.202;15.258;2023-01-29T05:51:39;96899.50;;;-2.52;100.00
29379;BME280;16362;47.202;15.258;2023-01-29T05:54:05;96912.66;;;-2.54;100.00
29379;BME280;16362;47.202;15.258;2023-01-29T05:56:32;96917.09;;;-2.56;100.00
29379;BME280;16362;47.202;15.258;2023-01-29T05:58:58;96920.03;;;-2.62;100.00
29379;BME280;16362;47.202;15.258;2023-01-29T06:01:25;96929.78;;;-2.66;100.00
29379;BME280;16362;47.202;15.258;2023-01-29T06:03:51;96928.41;;;-2.73;100.00
29379;BME280;16362;47.202;15.258;2023-01-29T06:06:18;96930.06;;;-2.72;100.00
29379;BME280;16362;47.202;15.258;2023-01-29T06:08:45;96932.56;;;-2.69;100.00
29379;BME280;16362;47.202;15.258;2023-01-29T06:11:12;96932.38;;;-2.66;100.00
29379;BME280;16362;47.202;15.258;2023-01-29T06:13:39;96939.16;;;-2.62;100.00
29379;BME280;16362;47.202;15.258;2023-01-29T06:16:06;96932.31;;;-2.47;100.00
29379;BME280;16362;47.202;15.258;2023-01-29T06:18:33;96940.22;;;-2.48;100.00
29379;BME280;16362;47.202;15.258;2023-01-29T06:21:01;96936.84;;;-2.50;100.00
29379;BME280;16362;47.202;15.258;2023-01-29T06:23:28;96937.91;;;-2.55;100.00
29379;BME280;16362;47.202;15.258;2023-01-29T06:25:58;96938.84;;;-2.56;100.00
29379;BME280;16362;47.202;15.258;2023-01-29T06:28:26;96922.56;;;-2.61;100.00
29379;BME280;16362;47.202;15.258;2023-01-29T06:30:52;96917.50;;;-2.64;100.00
29379;BME280;16362;47.202;15.258;2023-01-29T06:33:23;96933.31;;;-2.67;100.00
29379;BME280;16362;47.202;15.258;2023-01-29T06:35:56;96935.09;;;-2.50;100.00
29379;BME280;16362;47.202;15.258;2023-01-29T06:38:23;96938.25;;;-2.61;100.00
29379;BME280;16362;47.202;15.258;2023-01-29T06:40:51;96948.00;;;-2.64;100.00
29379;BME280;16362;47.202;15.258;2023-01-29T06:43:18;96941.59;;;-2.59;100.00
29379;BME280;16362;47.202;15.258;2023-01-29T06:45:54;96942.59;;;-2.61;100.00
29379;BME280;16362;47.202;15.258;2023-01-29T06:48:22;96945.75;;;-2.72;100.00
29379;BME280;16362;47.202;15.258;2023-01-29T06:50:49;96949.38;;;-2.75;100.00
29379;BME280;16362;47.202;15.258;2023-01-29T06:53:16;96949.75;;;-2.82;100.00
29379;BME280;16362;47.202;15.258;2023-01-29T06:55:45;96946.50;;;-2.88;100.00
29379;BME280;16362;47.202;15.258;2023-01-29T06:58:16;96957.25;;;-2.94;100.00
29379;BME280;16362;47.202;15.258;2023-01-29T07:00:42;96949.56;;;-2.97;100.00
29379;BME280;16362;47.202;15.258;2023-01-29T07:03:09;96960.94;;;-2.98;100.00
29379;BME280;16362;47.202;15.258;2023-01-29T07:05:36;96955.69;;;-2.98;100.00
29379;BME280;16362;47.202;15.258;2023-01-29T07:08:03;96945.88;;;-2.93;100.00
29379;BME280;16362;47.202;15.258;2023-01-29T07:10:29;96939.47;;;-2.85;100.00
29379;BME280;16362;47.202;15.258;2023-01-29T07:12:59;96939.31;;;-2.82;100.00
29379;BME280;16362;47.202;15.258;2023-01-29T07:15:26;96941.13;;;-2.84;100.00
29379;BME280;16362;47.202;15.258;2023-01-29T07:17:59;96944.81;;;-2.89;100.00
29379;BME280;16362;47.202;15.258;2023-01-29T07:20:26;96944.13;;;-2.92;100.00
29379;BME280;16362;47.202;15.258;2023-01-29T07:22:53;96938.97;;;-2.94;100.00
29379;BME280;16362;47.202;15.258;2023-01-29T07:25:20;96937.69;;;-2.85;100.00
29379;BME280;16362;47.202;15.258;2023-01-29T07:27:46;96931.47;;;-2.82;100.00
29379;BME280;16362;47.202;15.258;2023-01-29T07:30:14;96928.84;;;-2.82;100.00
29379;BME280;16362;47.202;15.258;2023-01-29T07:32:41;96931.63;;;-2.85;100.00
29379;BME280;16362;47.202;15.258;2023-01-29T07:35:08;96933.38;;;-2.86;100.00
29379;BME280;16362;47.202;15.258;2023-01-29T07:37:34;96937.69;;;-2.85;100.00
29379;BME280;16362;47.202;15.258;2023-01-29T07:40:01;96937.59;;;-2.83;100.00
29379;BME280;16362;47.202;15.258;2023-01-29T07:42:29;96936.78;;;-2.84;100.00
29379;BME280;16362;47.202;15.258;2023-01-29T07:44:55;96922.09;;;-2.86;100.00
29379;BME280;16362;47.202;15.258;2023-01-29T07:47:22;96920.16;;;-2.83;100.00
29379;BME280;16362;47.202;15.258;2023-01-29T07:49:48;96905.34;;;-2.82;100.00
29379;BME280;16362;47.202;15.258;2023-01-29T07:52:15;96906.19;;;-2.82;100.00
29379;BME280;16362;47.202;15.258;2023-01-29T07:54:41;96907.63;;;-2.76;100.00
29379;BME280;16362;47.202;15.258;2023-01-29T07:57:08;96910.88;;;-2.71;100.00
29379;BME280;16362;47.202;15.258;2023-01-29T07:59:35;96914.03;;;-2.64;100.00
29379;BME280;16362;47.202;15.258;2023-01-29T08:02:01;96913.94;;;-2.63;100.00
29379;BME280;16362;47.202;15.258;2023-01-29T08:04:28;96917.16;;;-2.58;100.00
29379;BME280;16362;47.202;15.258;2023-01-29T08:06:54;96919.53;;;-2.53;100.00
29379;BME280;16362;47.202;15.258;2023-01-29T08:09:21;96916.53;;;-2.45;100.00
29379;BME280;16362;47.202;15.258;2023-01-29T08:11:47;96916.63;;;-2.47;100.00
29379;BME280;16362;47.202;15.258;2023-01-29T08:14:14;96915.53;;;-2.43;100.00
29379;BME280;16362;47.202;15.258;2023-01-29T08:16:41;96920.84;;;-2.44;100.00
29379;BME280;16362;47.202;15.258;2023-01-29T08:19:07;96921.59;;;-2.42;100.00
29379;BME280;16362;47.202;15.258;2023-01-29T08:21:34;96915.81;;;-2.31;100.00
29379;BME280;16362;47.202;15.258;2023-01-29T08:24:00;96916.13;;;-2.20;100.00
29379;BME280;16362;47.202;15.258;2023-01-29T08:26:32;96917.31;;;-2.10;100.00
29379;BME280;16362;47.202;15.258;2023-01-29T08:28:58;96919.38;;;-2.15;100.00
29379;BME280;16362;47.202;15.258;2023-01-29T08:31:25;96915.13;;;-2.17;100.00
29379;BME280;16362;47.202;15.258;2023-01-29T08:33:52;96916.06;;;-2.18;100.00
29379;BME280;16362;47.202;15.258;2023-01-29T08:36:19;96914.97;;;-2.14;100.00
29379;BME280;16362;47.202;15.258;2023-01-29T08:38:46;96911.09;;;-2.07;100.00
29379;BME280;16362;47.202;15.258;2023-01-29T08:41:13;96912.41;;;-1.98;100.00
29379;BME280;16362;47.202;15.258;2023-01-29T08:43:39;96921.78;;;-1.94;100.00
29379;BME280;16362;47.202;15.258;2023-01-29T08:46:06;96920.75;;;-1.92;100.00
29379;BME280;16362;47.202;15.258;2023-01-29T08:48:33;96928.72;;;-1.77;100.00
29379;BME280;16362;47.202;15.258;2023-01-29T08:51:00;96931.75;;;-1.85;100.00
29379;BME280;16362;47.202;15.258;2023-01-29T08:53:27;96933.41;;;-2.00;100.00
29379;BME280;16362;47.202;15.258;2023-01-29T08:55:54;96931.63;;;-1.99;100.00
29379;BME280;16362;47.202;15.258;2023-01-29T08:58:20;96925.91;;;-1.90;100.00
29379;BME280;16362;47.202;15.258;2023-01-29T09:00:47;96934.97;;;-1.80;100.00
29379;BME280;16362;47.202;15.258;2023-01-29T09:03:14;96931.31;;;-1.77;100.00
29379;BME280;16362;47.202;15.258;2023-01-29T09:05:41;96930.75;;;-1.82;100.00
29379;BME280;16362;47.202;15.258;2023-01-29T09:08:07;96926.56;;;-1.69;100.00
29379;BME280;16362;47.202;15.258;2023-01-29T09:10:35;96931.25;;;-1.60;100.00
29379;BME280;16362;47.202;15.258;2023-01-29T09:13:01;96933.13;;;-1.62;100.00
29379;BME280;16362;47.202;15.258;2023-01-29T09:15:28;96939.56;;;-1.51;100.00
29379;BME280;16362;47.202;15.258;2023-01-29T09:17:54;96939.81;;;-1.40;100.00
29379;BME280;16362;47.202;15.258;2023-01-29T09:20:21;96942.03;;;-1.32;100.00
29379;BME280;16362;47.202;15.258;2023-01-29T09:22:47;96948.09;;;-1.32;100.00
29379;BME280;16362;47.202;15.258;2023-01-29T09:25:15;96937.03;;;-1.37;100.00
29379;BME280;16362;47.202;15.258;2023-01-29T09:27:42;96942.09;;;-1.34;100.00
29379;BME280;16362;47.202;15.258;2023-01-29T09:30:09;96943.19;;;-1.22;100.00
29379;BME280;16362;47.202;15.258;2023-01-29T09:32:36;96945.13;;;-1.10;100.00
29379;BME280;16362;47.202;15.258;2023-01-29T09:35:22;96944.97;;;-1.23;100.00
29379;BME280;16362;47.202;15.258;2023-01-29T09:37:49;96948.63;;;-0.79;100.00
29379;BME280;16362;47.202;15.258;2023-01-29T09:40:23;96944.06;;;-0.45;100.00
29379;BME280;16362;47.202;15.258;2023-01-29T09:42:54;96937.31;;;-0.19;100.00
29379;BME280;16362;47.202;15.258;2023-01-29T09:45:23;96936.19;;;0.14;100.00
29379;BME280;16362;47.202;15.258;2023-01-29T09:47:51;96923.06;;;0.14;100.00
29379;BME280;16362;47.202;15.258;2023-01-29T09:50:29;96928.13;;;0.17;100.00
29379;BME280;16362;47.202;15.258;2023-01-29T09:55:36;96934.41;;;0.01;100.00
29379;BME280;16362;47.202;15.258;2023-01-29T09:58:12;96932.88;;;-0.18;100.00
29379;BME280;16362;47.202;15.258;2023-01-29T10:00:43;96929.06;;;0.02;100.00
29379;BME280;16362;47.202;15.258;2023-01-29T10:11:11;96910.16;;;0.67;100.00
29379;BME280;16362;47.202;15.258;2023-01-29T10:26:41;96890.03;;;0.54;100.00
29379;BME280;16362;47.202;15.258;2023-01-29T10:29:09;96891.53;;;0.43;100.00
29379;BME280;16362;47.202;15.258;2023-01-29T10:31:41;96884.47;;;0.16;100.00
29379;BME280;16362;47.202;15.258;2023-01-29T10:34:10;96885.31;;;-0.12;100.00
29379;BME280;16362;47.202;15.258;2023-01-29T10:36:43;96889.38;;;-0.37;100.00
29379;BME280;16362;47.202;15.258;2023-01-29T10:39:13;96891.22;;;-0.53;100.00
29379;BME280;16362;47.202;15.258;2023-01-29T10:42:01;96890.72;;;-0.74;100.00
29379;BME280;16362;47.202;15.258;2023-01-29T10:47:25;96891.44;;;-0.87;100.00
29379;BME280;16362;47.202;15.258;2023-01-29T11:02:47;96871.31;;;-0.12;100.00
29379;BME280;16362;47.202;15.258;2023-01-29T11:05:40;96858.41;;;-0.01;100.00
29379;BME280;16362;47.202;15.258;2023-01-29T11:08:04;96870.66;;;-0.02;100.00
29379;BME280;16362;47.202;15.258;2023-01-29T11:10:32;96857.44;;;0.14;100.00
29379;BME280;16362;47.202;15.258;2023-01-29T11:13:02;96863.47;;;0.16;100.00
29379;BME280;16362;47.202;15.258;2023-01-29T11:15:31;96859.28;;;0.41;100.00
29379;BME280;16362;47.202;15.258;2023-01-29T11:18:03;96854.78;;;0.43;100.00
29379;BME280;16362;47.202;15.258;2023-01-29T11:20:30;96860.44;;;0.37;100.00
29379;BME280;16362;47.202;15.258;2023-01-29T11:22:57;96849.72;;;0.40;100.00
29379;BME280;16362;47.202;15.258;2023-01-29T11:25:24;96843.75;;;0.24;100.00
29379;BME280;16362;47.202;15.258;2023-01-29T11:27:53;96843.84;;;0.22;100.00
29379;BME280;16362;47.202;15.258;2023-01-29T11:30:27;96832.69;;;0.19;100.00
29379;BME280;16362;47.202;15.258;2023-01-29T11:33:06;96838.72;;;0.06;100.00
29379;BME280;16362;47.202;15.258;2023-01-29T11:35:34;96827.84;;;-0.02;100.00
29379;BME280;16362;47.202;15.258;2023-01-29T11:38:06;96828.25;;;-0.23;100.00
29379;BME280;16362;47.202;15.258;2023-01-29T11:40:34;96819.63;;;-0.10;100.00
29379;BME280;16362;47.202;15.258;2023-01-29T11:43:21;96823.56;;;-0.18;100.00
29379;BME280;16362;47.202;15.258;2023-01-29T11:45:48;96815.69;;;-0.32;100.00
29379;BME280;16362;47.202;15.258;2023-01-29T11:48:16;96812.31;;;-0.34;100.00
29379;BME280;16362;47.202;15.258;2023-01-29T11:50:55;96809.50;;;-0.45;100.00
29379;BME280;16362;47.202;15.258;2023-01-29T11:53:31;96809.38;;;-0.58;100.00
29379;BME280;16362;47.202;15.258;2023-01-29T11:55:59;96807.06;;;-0.48;100.00
29379;BME280;16362;47.202;15.258;2023-01-29T11:58:28;96802.66;;;-0.33;100.00
29379;BME280;16362;47.202;15.258;2023-01-29T12:00:57;96801.28;;;-0.39;100.00
29379;BME280;16362;47.202;15.258;2023-01-29T12:06:04;96814.38;;;-0.54;100.00
29379;BME280;16362;47.202;15.258;2023-01-29T12:08:33;96815.47;;;-0.58;100.00
29379;BME280;16362;47.202;15.258;2023-01-29T12:11:11;96809.66;;;-0.63;100.00
29379;BME280;16362;47.202;15.258;2023-01-29T12:13:40;96816.78;;;-0.65;100.00
29379;BME280;16362;47.202;15.258;2023-01-29T12:16:13;96807.03;;;-0.63;100.00
29379;BME280;16362;47.202;15.258;2023-01-29T12:18:42;96804.78;;;-0.69;100.00
29379;BME280;16362;47.202;15.258;2023-01-29T12:21:16;96800.50;;;-0.70;100.00
29379;BME280;16362;47.202;15.258;2023-01-29T12:31:18;96804.53;;;-0.95;100.00
29379;BME280;16362;47.202;15.258;2023-01-29T12:33:50;96801.38;;;-1.00;100.00
29379;BME280;16362;47.202;15.258;2023-01-29T12:38:48;96794.41;;;-1.15;100.00
29379;BME280;16362;47.202;15.258;2023-01-29T12:43:55;96782.66;;;-1.08;100.00
29379;BME280;16362;47.202;15.258;2023-01-29T12:48:49;96776.44;;;-1.07;100.00
29379;BME280;16362;47.202;15.258;2023-01-29T12:51:19;96771.41;;;-1.10;100.00
29379;BME280;16362;47.202;15.258;2023-01-29T12:56:25;96763.94;;;-1.02;100.00
29379;BME280;16362;47.202;15.258;2023-01-29T12:58:53;96764.31;;;-0.94;100.00
29379;BME280;16362;47.202;15.258;2023-01-29T13:01:25;96759.13;;;-1.10;100.00
29379;BME280;16362;47.202;15.258;2023-01-29T13:06:20;96755.69;;;-1.10;100.00
29379;BME280;16362;47.202;15.258;2023-01-29T13:08:49;96751.16;;;-1.23;100.00
29379;BME280;16362;47.202;15.258;2023-01-29T13:11:23;96751.91;;;-1.21;100.00
29379;BME280;16362;47.202;15.258;2023-01-29T13:16:20;96758.44;;;-1.28;100.00
29379;BME280;16362;47.202;15.258;2023-01-29T13:18:59;96748.06;;;-1.29;100.00
29379;BME280;16362;47.202;15.258;2023-01-29T13:21:29;96747.63;;;-1.22;100.00
29379;BME280;16362;47.202;15.258;2023-01-29T13:23:57;96753.34;;;-1.45;100.00
29379;BME280;16362;47.202;15.258;2023-01-29T13:26:26;96745.66;;;-1.48;100.00
29379;BME280;16362;47.202;15.258;2023-01-29T13:28:54;96737.38;;;-1.41;100.00
29379;BME280;16362;47.202;15.258;2023-01-29T13:31:27;96741.22;;;-1.32;100.00
29379;BME280;16362;47.202;15.258;2023-01-29T13:34:01;96741.63;;;-1.24;100.00
29379;BME280;16362;47.202;15.258;2023-01-29T13:36:29;96750.25;;;-1.22;100.00
29379;BME280;16362;47.202;15.258;2023-01-29T13:39:04;96748.97;;;-1.00;100.00
29379;BME280;16362;47.202;15.258;2023-01-29T13:41:41;96748.25;;;-0.88;100.00
29379;BME280;16362;47.202;15.258;2023-01-29T13:44:28;96750.00;;;-0.88;100.00
29379;BME280;16362;47.202;15.258;2023-01-29T13:46:59;96743.34;;;-0.94;100.00
29379;BME280;16362;47.202;15.258;2023-01-29T13:49:27;96751.22;;;-0.94;100.00
29379;BME280;16362;47.202;15.258;2023-01-29T13:51:55;96748.97;;;-1.00;100.00
29379;BME280;16362;47.202;15.258;2023-01-29T13:54:23;96745.31;;;-1.12;100.00
29379;BME280;16362;47.202;15.258;2023-01-29T13:59:22;96747.44;;;-1.19;100.00
29379;BME280;16362;47.202;15.258;2023-01-29T14:06:55;96737.97;;;-1.21;100.00
29379;BME280;16362;47.202;15.258;2023-01-29T14:12:04;96746.56;;;-1.33;100.00
29379;BME280;16362;47.202;15.258;2023-01-29T14:14:58;96748.72;;;-1.26;100.00
29379;BME280;16362;47.202;15.258;2023-01-29T14:17:26;96751.91;;;-1.21;100.00
29379;BME280;16362;47.202;15.258;2023-01-29T14:20:00;96745.16;;;-1.25;100.00
29379;BME280;16362;47.202;15.258;2023-01-29T14:22:28;96754.91;;;-1.27;100.00
29379;BME280;16362;47.202;15.258;2023-01-29T14:24:58;96756.50;;;-1.24;100.00
29379;BME280;16362;47.202;15.258;2023-01-29T14:27:25;96750.63;;;-1.13;100.00
29379;BME280;16362;47.202;15.258;2023-01-29T14:29:58;96751.50;;;-1.29;100.00
29379;BME280;16362;47.202;15.258;2023-01-29T14:32:26;96740.41;;;-1.32;100.00
29379;BME280;16362;47.202;15.258;2023-01-29T14:34:58;96739.91;;;-1.39;100.00
29379;BME280;16362;47.202;15.258;2023-01-29T14:40:07;96739.53;;;-1.33;100.00
29379;BME280;16362;47.202;15.258;2023-01-29T14:56:19;96747.66;;;-1.38;100.00
29379;BME280;16362;47.202;15.258;2023-01-29T14:58:37;96743.06;;;-1.34;100.00
29379;BME280;16362;47.202;15.258;2023-01-29T15:01:13;96743.06;;;-1.34;100.00
29379;BME280;16362;47.202;15.258;2023-01-29T15:06:08;96732.69;;;-1.36;100.00
29379;BME280;16362;47.202;15.258;2023-01-29T15:08:39;96731.28;;;-1.41;100.00
29379;BME280;16362;47.202;15.258;2023-01-29T15:11:14;96737.84;;;-1.34;100.00
29379;BME280;16362;47.202;15.258;2023-01-29T15:16:30;96726.03;;;-1.41;100.00
29379;BME280;16362;47.202;15.258;2023-01-29T15:19:03;96725.22;;;-1.42;100.00